sensor_id;sensor_type;location;lat;lon;timestamp;P1;durP1;ratioP1;P2;durP2;ratioP2
20731;SDS011;10527;52.124;5.196;2022-10-13T00:01:06;11.60;;;5.88;;
20731;SDS011;10527;52.124;5.196;2022-10-13T00:03:40;9.20;;;6.22;;
20731;SDS011;10527;52.124;5.196;2022-10-13T00:06:08;8.82;;;5.38;;
20731;SDS011;10527;52.124;5.196;2022-10-13T00:08:42;10.00;;;5.57;;
20731;SDS011;10527;52.124;5.196;2022-10-13T00:11:11;9.90;;;5.65;;
20731;SDS011;10527;52.124;5.196;2022-10-13T00:14:04;9.80;;;5.47;;
20731;SDS011;10527;52.124;5.196;2022-10-13T00:16:31;10.85;;;6.70;;
20731;SDS011;10527;52.124;5.196;2022-10-13T00:18:58;9.63;;;5.80;;
20731;SDS011;10527;52.124;5.196;2022-10-13T00:21:25;11.43;;;6.32;;
20731;SDS011;10527;52.124;5.196;2022-10-13T00:24:00;9.82;;;5.95;;
20731;SDS011;10527;52.124;5.196;2022-10-13T00:26:27;10.40;;;6.50;;
20731;SDS011;10527;52.124;5.196;2022-10-13T00:28:54;11.52;;;6.63;;
20731;SDS011;10527;52.124;5.196;2022-10-13T00:31:23;11.48;;;7.47;;
20731;SDS011;10527;52.124;5.196;2022-10-13T00:33:55;9.23;;;6.13;;
20731;SDS011;10527;52.124;5.196;2022-10-13T00:36:24;8.30;;;5.78;;
20731;SDS011;10527;52.124;5.196;2022-10-13T00:38:55;9.77;;;6.32;;
20731;SDS011;10527;52.124;5.196;2022-10-13T00:41:23;9.73;;;5.93;;
20731;SDS011;10527;52.124;5.196;2022-10-13T00:46:33;10.35;;;5.97;;
20731;SDS011;10527;52.124;5.196;2022-10-13T00:49:12;11.45;;;6.75;;
20731;SDS011;10527;52.124;5.196;2022-10-13T00:51:43;10.38;;;6.53;;
20731;SDS011;10527;52.124;5.196;2022-10-13T00:54:15;10.68;;;6.68;;
20731;SDS011;10527;52.124;5.196;2022-10-13T00:56:47;14.13;;;7.47;;
20731;SDS011;10527;52.124;5.196;2022-10-13T00:59:20;11.93;;;6.85;;
20731;SDS011;10527;52.124;5.196;2022-10-13T01:01:55;8.93;;;6.22;;
20731;SDS011;10527;52.124;5.196;2022-10-13T01:04:26;10.30;;;6.80;;
20731;SDS011;10527;52.124;5.196;2022-10-13T01:06:59;10.27;;;6.78;;
20731;SDS011;10527;52.124;5.196;2022-10-13T01:09:28;11.70;;;7.63;;
20731;SDS011;10527;52.124;5.196;2022-10-13T01:24:21;11.48;;;5.82;;
20731;SDS011;10527;52.124;5.196;2022-10-13T01:27:16;10.13;;;6.53;;
20731;SDS011;10527;52.124;5.196;2022-10-13T01:30:19;8.18;;;5.95;;
20731;SDS011;10527;52.124;5.196;2022-10-13T01:35:48;9.48;;;6.20;;
20731;SDS011;10527;52.124;5.196;2022-10-13T01:43:51;11.63;;;6.53;;
20731;SDS011;10527;52.124;5.196;2022-10-13T01:46:33;9.13;;;6.30;;
20731;SDS011;10527;52.124;5.196;2022-10-13T01:49:04;9.77;;;6.47;;
20731;SDS011;10527;52.124;5.196;2022-10-13T01:51:40;9.00;;;6.43;;
20731;SDS011;10527;52.124;5.196;2022-10-13T01:54:09;16.30;;;7.65;;
20731;SDS011;10527;52.124;5.196;2022-10-13T01:56:36;11.95;;;6.53;;
20731;SDS011;10527;52.124;5.196;2022-10-13T01:59:07;9.70;;;6.95;;
20731;SDS011;10527;52.124;5.196;2022-10-13T02:07:35;9.68;;;6.57;;
20731;SDS011;10527;52.124;5.196;2022-10-13T02:10:16;9.32;;;5.78;;
20731;SDS011;10527;52.124;5.196;2022-10-13T02:12:56;10.68;;;6.50;;
20731;SDS011;10527;52.124;5.196;2022-10-13T02:15:30;9.43;;;6.00;;
20731;SDS011;10527;52.124;5.196;2022-10-13T02:18:06;8.65;;;6.40;;
20731;SDS011;10527;52.124;5.196;2022-10-13T02:20:35;10.52;;;6.75;;
20731;SDS011;10527;52.124;5.196;2022-10-13T02:23:03;11.18;;;7.30;;
20731;SDS011;10527;52.124;5.196;2022-10-13T02:25:38;13.15;;;7.85;;
20731;SDS011;10527;52.124;5.196;2022-10-13T02:28:06;10.32;;;7.05;;
20731;SDS011;10527;52.124;5.196;2022-10-13T02:30:34;10.48;;;7.15;;
20731;SDS011;10527;52.124;5.196;2022-10-13T02:33:01;10.40;;;6.45;;
20731;SDS011;10527;52.124;5.196;2022-10-13T02:35:28;8.60;;;6.38;;
20731;SDS011;10527;52.124;5.196;2022-10-13T02:37:56;10.13;;;5.93;;
20731;SDS011;10527;52.124;5.196;2022-10-13T02:40:22;12.00;;;6.53;;
20731;SDS011;10527;52.124;5.196;2022-10-13T02:42:52;11.95;;;6.45;;
20731;SDS011;10527;52.124;5.196;2022-10-13T02:45:19;15.80;;;6.90;;
20731;SDS011;10527;52.124;5.196;2022-10-13T02:47:45;10.00;;;5.60;;
20731;SDS011;10527;52.124;5.196;2022-10-13T02:50:12;10.32;;;5.68;;
20731;SDS011;10527;52.124;5.196;2022-10-13T02:52:39;9.20;;;6.43;;
20731;SDS011;10527;52.124;5.196;2022-10-13T02:55:06;11.10;;;6.97;;
20731;SDS011;10527;52.124;5.196;2022-10-13T02:57:34;11.93;;;6.25;;
20731;SDS011;10527;52.124;5.196;2022-10-13T03:00:04;11.80;;;6.95;;
20731;SDS011;10527;52.124;5.196;2022-10-13T03:02:33;9.65;;;5.97;;
20731;SDS011;10527;52.124;5.196;2022-10-13T03:05:00;11.15;;;6.40;;
20731;SDS011;10527;52.124;5.196;2022-10-13T03:07:27;6.80;;;5.28;;
20731;SDS011;10527;52.124;5.196;2022-10-13T03:09:54;10.35;;;6.60;;
20731;SDS011;10527;52.124;5.196;2022-10-13T03:12:21;9.10;;;5.90;;
20731;SDS011;10527;52.124;5.196;2022-10-13T03:14:48;8.68;;;6.35;;
20731;SDS011;10527;52.124;5.196;2022-10-13T03:17:16;7.68;;;5.43;;
20731;SDS011;10527;52.124;5.196;2022-10-13T03:19:43;12.65;;;7.18;;
20731;SDS011;10527;52.124;5.196;2022-10-13T03:22:10;9.70;;;6.22;;
20731;SDS011;10527;52.124;5.196;2022-10-13T03:24:40;7.80;;;6.18;;
20731;SDS011;10527;52.124;5.196;2022-10-13T03:27:07;11.57;;;6.50;;
20731;SDS011;10527;52.124;5.196;2022-10-13T03:29:34;12.32;;;7.30;;
20731;SDS011;10527;52.124;5.196;2022-10-13T03:32:01;11.95;;;6.40;;
20731;SDS011;10527;52.124;5.196;2022-10-13T03:34:27;9.23;;;6.50;;
20731;SDS011;10527;52.124;5.196;2022-10-13T03:36:54;8.35;;;6.00;;
20731;SDS011;10527;52.124;5.196;2022-10-13T03:39:21;9.05;;;5.03;;
20731;SDS011;10527;52.124;5.196;2022-10-13T03:41:48;9.18;;;5.82;;
20731;SDS011;10527;52.124;5.196;2022-10-13T03:44:14;8.82;;;6.22;;
20731;SDS011;10527;52.124;5.196;2022-10-13T03:46:41;11.05;;;6.80;;
20731;SDS011;10527;52.124;5.196;2022-10-13T03:49:09;10.43;;;6.35;;
20731;SDS011;10527;52.124;5.196;2022-10-13T03:51:37;10.00;;;6.57;;
20731;SDS011;10527;52.124;5.196;2022-10-13T03:54:04;10.35;;;6.18;;
20731;SDS011;10527;52.124;5.196;2022-10-13T03:56:31;9.02;;;6.10;;
20731;SDS011;10527;52.124;5.196;2022-10-13T03:58:58;9.80;;;6.28;;
20731;SDS011;10527;52.124;5.196;2022-10-13T04:01:27;13.13;;;7.32;;
20731;SDS011;10527;52.124;5.196;2022-10-13T04:04:00;9.85;;;6.10;;
20731;SDS011;10527;52.124;5.196;2022-10-13T04:06:29;8.45;;;5.95;;
20731;SDS011;10527;52.124;5.196;2022-10-13T04:08:56;9.20;;;7.07;;
20731;SDS011;10527;52.124;5.196;2022-10-13T04:11:24;10.45;;;6.80;;
20731;SDS011;10527;52.124;5.196;2022-10-13T04:13:51;9.73;;;6.32;;
20731;SDS011;10527;52.124;5.196;2022-10-13T04:16:20;9.82;;;6.72;;
20731;SDS011;10527;52.124;5.196;2022-10-13T04:18:52;7.20;;;5.95;;
20731;SDS011;10527;52.124;5.196;2022-10-13T04:24:16;10.15;;;6.43;;
20731;SDS011;10527;52.124;5.196;2022-10-13T04:26:43;8.90;;;6.05;;
20731;SDS011;10527;52.124;5.196;2022-10-13T04:29:11;10.80;;;6.50;;
20731;SDS011;10527;52.124;5.196;2022-10-13T04:31:39;10.50;;;6.35;;
20731;SDS011;10527;52.124;5.196;2022-10-13T04:34:09;9.02;;;7.18;;
20731;SDS011;10527;52.124;5.196;2022-10-13T04:36:36;8.73;;;6.03;;
20731;SDS011;10527;52.124;5.196;2022-10-13T04:39:03;10.27;;;6.00;;
20731;SDS011;10527;52.124;5.196;2022-10-13T04:41:30;9.20;;;6.32;;
20731;SDS011;10527;52.124;5.196;2022-10-13T04:43:57;10.77;;;6.63;;
20731;SDS011;10527;52.124;5.196;2022-10-13T04:46:27;8.20;;;5.90;;
20731;SDS011;10527;52.124;5.196;2022-10-13T04:48:54;12.25;;;6.43;;
20731;SDS011;10527;52.124;5.196;2022-10-13T04:51:22;11.23;;;6.70;;
20731;SDS011;10527;52.124;5.196;2022-10-13T04:53:55;9.25;;;7.00;;
20731;SDS011;10527;52.124;5.196;2022-10-13T04:56:24;12.50;;;6.53;;
20731;SDS011;10527;52.124;5.196;2022-10-13T04:58:58;14.45;;;8.95;;
20731;SDS011;10527;52.124;5.196;2022-10-13T05:01:25;10.02;;;6.53;;
20731;SDS011;10527;52.124;5.196;2022-10-13T05:03:53;9.93;;;6.43;;
20731;SDS011;10527;52.124;5.196;2022-10-13T05:06:30;11.70;;;6.85;;
20731;SDS011;10527;52.124;5.196;2022-10-13T05:08:59;9.95;;;6.53;;
20731;SDS011;10527;52.124;5.196;2022-10-13T05:11:27;13.60;;;7.03;;
20731;SDS011;10527;52.124;5.196;2022-10-13T05:13:58;10.20;;;7.25;;
20731;SDS011;10527;52.124;5.196;2022-10-13T05:16:27;9.18;;;6.95;;
20731;SDS011;10527;52.124;5.196;2022-10-13T05:18:56;12.43;;;7.40;;
20731;SDS011;10527;52.124;5.196;2022-10-13T05:21:24;9.85;;;6.82;;
20731;SDS011;10527;52.124;5.196;2022-10-13T05:23:55;12.85;;;7.07;;
20731;SDS011;10527;52.124;5.196;2022-10-13T05:26:23;10.20;;;6.63;;
20731;SDS011;10527;52.124;5.196;2022-10-13T05:28:57;12.13;;;7.40;;
20731;SDS011;10527;52.124;5.196;2022-10-13T05:31:26;9.75;;;6.95;;
20731;SDS011;10527;52.124;5.196;2022-10-13T05:33:55;8.15;;;6.68;;
20731;SDS011;10527;52.124;5.196;2022-10-13T05:36:24;14.23;;;7.45;;
20731;SDS011;10527;52.124;5.196;2022-10-13T05:38:57;14.60;;;8.43;;
20731;SDS011;10527;52.124;5.196;2022-10-13T05:41:27;13.98;;;6.95;;
20731;SDS011;10527;52.124;5.196;2022-10-13T05:44:05;16.42;;;8.20;;
20731;SDS011;10527;52.124;5.196;2022-10-13T05:46:34;10.63;;;6.53;;
20731;SDS011;10527;52.124;5.196;2022-10-13T05:49:01;24.50;;;7.35;;
20731;SDS011;10527;52.124;5.196;2022-10-13T05:51:30;9.80;;;6.93;;
20731;SDS011;10527;52.124;5.196;2022-10-13T05:54:18;12.15;;;6.15;;
20731;SDS011;10527;52.124;5.196;2022-10-13T05:56:56;10.10;;;6.50;;
20731;SDS011;10527;52.124;5.196;2022-10-13T05:59:40;15.57;;;10.52;;
20731;SDS011;10527;52.124;5.196;2022-10-13T06:02:20;12.07;;;8.05;;
20731;SDS011;10527;52.124;5.196;2022-10-13T06:04:52;10.27;;;6.90;;
20731;SDS011;10527;52.124;5.196;2022-10-13T06:07:22;11.63;;;7.47;;
20731;SDS011;10527;52.124;5.196;2022-10-13T06:09:49;11.80;;;7.20;;
20731;SDS011;10527;52.124;5.196;2022-10-13T06:12:16;12.75;;;6.38;;
20731;SDS011;10527;52.124;5.196;2022-10-13T06:14:44;13.48;;;6.45;;
20731;SDS011;10527;52.124;5.196;2022-10-13T06:17:11;9.25;;;6.05;;
20731;SDS011;10527;52.124;5.196;2022-10-13T06:19:37;10.35;;;6.15;;
20731;SDS011;10527;52.124;5.196;2022-10-13T06:22:04;10.00;;;6.53;;
20731;SDS011;10527;52.124;5.196;2022-10-13T06:24:31;10.23;;;7.35;;
20731;SDS011;10527;52.124;5.196;2022-10-13T06:26:58;9.90;;;6.40;;
20731;SDS011;10527;52.124;5.196;2022-10-13T06:29:25;13.13;;;7.10;;
20731;SDS011;10527;52.124;5.196;2022-10-13T06:31:51;11.32;;;6.47;;
20731;SDS011;10527;52.124;5.196;2022-10-13T06:34:18;11.40;;;6.75;;
20731;SDS011;10527;52.124;5.196;2022-10-13T06:36:45;9.70;;;6.63;;
20731;SDS011;10527;52.124;5.196;2022-10-13T06:39:12;10.30;;;7.03;;
20731;SDS011;10527;52.124;5.196;2022-10-13T06:41:39;12.18;;;7.47;;
20731;SDS011;10527;52.124;5.196;2022-10-13T06:44:06;9.45;;;6.88;;
20731;SDS011;10527;52.124;5.196;2022-10-13T06:46:33;12.45;;;7.68;;
20731;SDS011;10527;52.124;5.196;2022-10-13T06:48:59;12.00;;;8.00;;
20731;SDS011;10527;52.124;5.196;2022-10-13T06:51:26;13.00;;;8.15;;
20731;SDS011;10527;52.124;5.196;2022-10-13T06:53:56;11.88;;;7.72;;
20731;SDS011;10527;52.124;5.196;2022-10-13T06:56:22;14.00;;;7.90;;
20731;SDS011;10527;52.124;5.196;2022-10-13T06:58:49;13.73;;;8.98;;
20731;SDS011;10527;52.124;5.196;2022-10-13T07:01:16;9.35;;;7.70;;
20731;SDS011;10527;52.124;5.196;2022-10-13T07:03:43;11.40;;;7.35;;
20731;SDS011;10527;52.124;5.196;2022-10-13T07:06:09;15.38;;;9.20;;
20731;SDS011;10527;52.124;5.196;2022-10-13T07:08:36;14.35;;;10.10;;
20731;SDS011;10527;52.124;5.196;2022-10-13T07:11:10;13.52;;;8.60;;
20731;SDS011;10527;52.124;5.196;2022-10-13T07:13:41;12.43;;;8.98;;
20731;SDS011;10527;52.124;5.196;2022-10-13T07:16:12;14.38;;;8.50;;
20731;SDS011;10527;52.124;5.196;2022-10-13T07:18:41;14.63;;;9.48;;
20731;SDS011;10527;52.124;5.196;2022-10-13T07:21:09;15.63;;;9.07;;
20731;SDS011;10527;52.124;5.196;2022-10-13T07:23:35;13.02;;;9.02;;
20731;SDS011;10527;52.124;5.196;2022-10-13T07:26:06;12.18;;;9.55;;
20731;SDS011;10527;52.124;5.196;2022-10-13T07:28:35;14.80;;;10.18;;
20731;SDS011;10527;52.124;5.196;2022-10-13T07:31:09;16.83;;;10.55;;
20731;SDS011;10527;52.124;5.196;2022-10-13T07:33:40;15.07;;;10.27;;
20731;SDS011;10527;52.124;5.196;2022-10-13T07:36:10;16.70;;;10.75;;
20731;SDS011;10527;52.124;5.196;2022-10-13T07:38:38;13.52;;;10.18;;
20731;SDS011;10527;52.124;5.196;2022-10-13T07:41:06;17.80;;;11.85;;
20731;SDS011;10527;52.124;5.196;2022-10-13T07:43:36;15.95;;;11.98;;
20731;SDS011;10527;52.124;5.196;2022-10-13T07:46:04;20.38;;;13.50;;
20731;SDS011;10527;52.124;5.196;2022-10-13T07:48:33;15.85;;;12.55;;
20731;SDS011;10527;52.124;5.196;2022-10-13T07:51:04;14.65;;;11.20;;
20731;SDS011;10527;52.124;5.196;2022-10-13T07:53:35;14.75;;;10.93;;
20731;SDS011;10527;52.124;5.196;2022-10-13T07:56:03;17.98;;;11.18;;
20731;SDS011;10527;52.124;5.196;2022-10-13T07:58:35;18.10;;;12.02;;
20731;SDS011;10527;52.124;5.196;2022-10-13T08:01:04;18.13;;;11.55;;
20731;SDS011;10527;52.124;5.196;2022-10-13T08:03:33;16.23;;;11.50;;
20731;SDS011;10527;52.124;5.196;2022-10-13T08:06:02;14.98;;;10.55;;
20731;SDS011;10527;52.124;5.196;2022-10-13T08:08:30;14.60;;;10.90;;
20731;SDS011;10527;52.124;5.196;2022-10-13T08:11:02;15.50;;;11.10;;
20731;SDS011;10527;52.124;5.196;2022-10-13T08:13:33;16.35;;;11.18;;
20731;SDS011;10527;52.124;5.196;2022-10-13T08:16:01;18.85;;;12.07;;
20731;SDS011;10527;52.124;5.196;2022-10-13T08:18:28;12.60;;;10.13;;
20731;SDS011;10527;52.124;5.196;2022-10-13T08:20:58;17.02;;;10.38;;
20731;SDS011;10527;52.124;5.196;2022-10-13T08:23:47;13.95;;;10.77;;
20731;SDS011;10527;52.124;5.196;2022-10-13T08:26:16;17.30;;;9.88;;
20731;SDS011;10527;52.124;5.196;2022-10-13T08:28:48;17.13;;;9.35;;
20731;SDS011;10527;52.124;5.196;2022-10-13T08:31:35;11.60;;;9.23;;
20731;SDS011;10527;52.124;5.196;2022-10-13T08:34:02;15.02;;;10.15;;
20731;SDS011;10527;52.124;5.196;2022-10-13T08:36:29;14.85;;;9.93;;
20731;SDS011;10527;52.124;5.196;2022-10-13T08:38:56;20.52;;;11.18;;
20731;SDS011;10527;52.124;5.196;2022-10-13T08:41:25;15.15;;;10.63;;
20731;SDS011;10527;52.124;5.196;2022-10-13T08:44:09;14.13;;;10.15;;
20731;SDS011;10527;52.124;5.196;2022-10-13T08:49:55;12.77;;;10.07;;
20731;SDS011;10527;52.124;5.196;2022-10-13T08:52:44;12.63;;;10.05;;
20731;SDS011;10527;52.124;5.196;2022-10-13T08:55:41;10.52;;;8.95;;
20731;SDS011;10527;52.124;5.196;2022-10-13T08:58:29;14.45;;;10.00;;
20731;SDS011;10527;52.124;5.196;2022-10-13T09:03:37;12.70;;;9.88;;
20731;SDS011;10527;52.124;5.196;2022-10-13T09:06:40;12.50;;;10.10;;
20731;SDS011;10527;52.124;5.196;2022-10-13T09:09:13;16.20;;;11.23;;
20731;SDS011;10527;52.124;5.196;2022-10-13T09:11:44;13.30;;;9.80;;
20731;SDS011;10527;52.124;5.196;2022-10-13T09:14:31;16.35;;;10.82;;
20731;SDS011;10527;52.124;5.196;2022-10-13T09:17:13;15.38;;;10.20;;
20731;SDS011;10527;52.124;5.196;2022-10-13T09:19:59;13.60;;;9.18;;
20731;SDS011;10527;52.124;5.196;2022-10-13T09:22:59;11.27;;;8.90;;
20731;SDS011;10527;52.124;5.196;2022-10-13T09:25:40;14.20;;;9.98;;
20731;SDS011;10527;52.124;5.196;2022-10-13T09:31:00;13.68;;;10.48;;
20731;SDS011;10527;52.124;5.196;2022-10-13T09:34:01;14.00;;;9.48;;
20731;SDS011;10527;52.124;5.196;2022-10-13T09:37:15;13.00;;;9.50;;
20731;SDS011;10527;52.124;5.196;2022-10-13T09:42:51;12.98;;;9.30;;
20731;SDS011;10527;52.124;5.196;2022-10-13T09:45:19;12.32;;;8.52;;
20731;SDS011;10527;52.124;5.196;2022-10-13T09:47:54;12.68;;;9.48;;
20731;SDS011;10527;52.124;5.196;2022-10-13T09:50:32;15.70;;;8.50;;
20731;SDS011;10527;52.124;5.196;2022-10-13T09:55:46;13.13;;;9.40;;
20731;SDS011;10527;52.124;5.196;2022-10-13T09:58:16;10.88;;;9.05;;
20731;SDS011;10527;52.124;5.196;2022-10-13T10:00:53;14.40;;;8.68;;
20731;SDS011;10527;52.124;5.196;2022-10-13T10:06:08;12.38;;;8.13;;
20731;SDS011;10527;52.124;5.196;2022-10-13T10:08:57;12.43;;;8.57;;
20731;SDS011;10527;52.124;5.196;2022-10-13T10:12:03;10.25;;;7.88;;
20731;SDS011;10527;52.124;5.196;2022-10-13T10:14:36;11.38;;;8.05;;
20731;SDS011;10527;52.124;5.196;2022-10-13T10:19:50;9.57;;;7.15;;
20731;SDS011;10527;52.124;5.196;2022-10-13T10:25:50;11.32;;;7.47;;
20731;SDS011;10527;52.124;5.196;2022-10-13T10:28:36;14.50;;;8.70;;
20731;SDS011;10527;52.124;5.196;2022-10-13T10:31:18;11.95;;;7.10;;
20731;SDS011;10527;52.124;5.196;2022-10-13T10:37:12;13.60;;;7.80;;
20731;SDS011;10527;52.124;5.196;2022-10-13T10:45:30;10.27;;;6.00;;
20731;SDS011;10527;52.124;5.196;2022-10-13T10:48:11;11.02;;;6.70;;
20731;SDS011;10527;52.124;5.196;2022-10-13T10:51:01;12.60;;;6.40;;
20731;SDS011;10527;52.124;5.196;2022-10-13T10:53:37;11.93;;;7.32;;
20731;SDS011;10527;52.124;5.196;2022-10-13T10:59:21;10.02;;;6.40;;
20731;SDS011;10527;52.124;5.196;2022-10-13T11:04:52;8.98;;;6.55;;
20731;SDS011;10527;52.124;5.196;2022-10-13T11:12:23;11.35;;;7.13;;
20731;SDS011;10527;52.124;5.196;2022-10-13T11:15:15;8.82;;;6.50;;
20731;SDS011;10527;52.124;5.196;2022-10-13T11:17:51;10.75;;;7.20;;
20731;SDS011;10527;52.124;5.196;2022-10-13T11:25:33;11.77;;;6.93;;
20731;SDS011;10527;52.124;5.196;2022-10-13T11:30:49;13.95;;;8.68;;
20731;SDS011;10527;52.124;5.196;2022-10-13T11:45:01;15.27;;;8.65;;
20731;SDS011;10527;52.124;5.196;2022-10-13T11:51:16;11.57;;;7.13;;
20731;SDS011;10527;52.124;5.196;2022-10-13T11:54:12;11.40;;;8.00;;
20731;SDS011;10527;52.124;5.196;2022-10-13T11:56:50;12.95;;;8.07;;
20731;SDS011;10527;52.124;5.196;2022-10-13T12:02:13;13.25;;;7.25;;
20731;SDS011;10527;52.124;5.196;2022-10-13T12:04:58;15.98;;;8.52;;
20731;SDS011;10527;52.124;5.196;2022-10-13T12:07:35;12.80;;;8.48;;
20731;SDS011;10527;52.124;5.196;2022-10-13T12:10:06;15.32;;;8.10;;
20731;SDS011;10527;52.124;5.196;2022-10-13T12:15:25;13.23;;;7.80;;
20731;SDS011;10527;52.124;5.196;2022-10-13T12:17:53;16.55;;;8.57;;
20731;SDS011;10527;52.124;5.196;2022-10-13T12:20:27;11.57;;;8.20;;
20731;SDS011;10527;52.124;5.196;2022-10-13T12:22:57;14.13;;;8.07;;
20731;SDS011;10527;52.124;5.196;2022-10-13T12:25:25;17.90;;;9.68;;
20731;SDS011;10527;52.124;5.196;2022-10-13T12:27:56;12.02;;;7.60;;
20731;SDS011;10527;52.124;5.196;2022-10-13T12:30:27;12.95;;;7.50;;
20731;SDS011;10527;52.124;5.196;2022-10-13T12:33:01;15.68;;;8.48;;
20731;SDS011;10527;52.124;5.196;2022-10-13T12:35:49;14.32;;;8.38;;
20731;SDS011;10527;52.124;5.196;2022-10-13T12:38:19;17.67;;;9.35;;
20731;SDS011;10527;52.124;5.196;2022-10-13T12:40:47;11.35;;;7.55;;
20731;SDS011;10527;52.124;5.196;2022-10-13T12:43:21;17.83;;;8.25;;
20731;SDS011;10527;52.124;5.196;2022-10-13T12:45:50;13.32;;;8.20;;
20731;SDS011;10527;52.124;5.196;2022-10-13T12:48:35;13.07;;;7.80;;
20731;SDS011;10527;52.124;5.196;2022-10-13T12:51:16;12.43;;;7.97;;
20731;SDS011;10527;52.124;5.196;2022-10-13T12:53:54;12.68;;;8.20;;
20731;SDS011;10527;52.124;5.196;2022-10-13T12:56:34;11.50;;;7.38;;
20731;SDS011;10527;52.124;5.196;2022-10-13T12:59:12;11.48;;;7.72;;
20731;SDS011;10527;52.124;5.196;2022-10-13T13:01:51;14.65;;;8.32;;
20731;SDS011;10527;52.124;5.196;2022-10-13T13:04:57;11.38;;;7.15;;
20731;SDS011;10527;52.124;5.196;2022-10-13T13:07:30;12.15;;;7.93;;
20731;SDS011;10527;52.124;5.196;2022-10-13T13:12:44;8.23;;;6.63;;
20731;SDS011;10527;52.124;5.196;2022-10-13T13:17:51;15.90;;;8.80;;
20731;SDS011;10527;52.124;5.196;2022-10-13T13:20:29;11.93;;;7.32;;
20731;SDS011;10527;52.124;5.196;2022-10-13T13:22:59;10.77;;;6.97;;
20731;SDS011;10527;52.124;5.196;2022-10-13T13:25:26;12.55;;;7.93;;
20731;SDS011;10527;52.124;5.196;2022-10-13T13:27:53;12.43;;;7.75;;
20731;SDS011;10527;52.124;5.196;2022-10-13T13:30:20;12.38;;;8.07;;
20731;SDS011;10527;52.124;5.196;2022-10-13T13:32:49;13.40;;;8.07;;
20731;SDS011;10527;52.124;5.196;2022-10-13T13:35:17;15.68;;;9.27;;
20731;SDS011;10527;52.124;5.196;2022-10-13T13:37:48;12.85;;;8.07;;
20731;SDS011;10527;52.124;5.196;2022-10-13T13:40:18;12.77;;;7.85;;
20731;SDS011;10527;52.124;5.196;2022-10-13T13:42:50;12.73;;;8.20;;
20731;SDS011;10527;52.124;5.196;2022-10-13T13:45:18;13.45;;;8.20;;
20731;SDS011;10527;52.124;5.196;2022-10-13T13:47:51;10.85;;;7.72;;
20731;SDS011;10527;52.124;5.196;2022-10-13T13:50:27;11.68;;;7.80;;
20731;SDS011;10527;52.124;5.196;2022-10-13T13:53:00;11.68;;;7.88;;
20731;SDS011;10527;52.124;5.196;2022-10-13T13:55:28;14.05;;;8.18;;
20731;SDS011;10527;52.124;5.196;2022-10-13T13:57:56;13.07;;;8.65;;
20731;SDS011;10527;52.124;5.196;2022-10-13T14:00:23;11.20;;;7.18;;
20731;SDS011;10527;52.124;5.196;2022-10-13T14:02:49;12.05;;;8.52;;
20731;SDS011;10527;52.124;5.196;2022-10-13T14:05:16;10.77;;;8.15;;
20731;SDS011;10527;52.124;5.196;2022-10-13T14:07:43;13.45;;;8.82;;
20731;SDS011;10527;52.124;5.196;2022-10-13T14:10:10;14.85;;;7.97;;
20731;SDS011;10527;52.124;5.196;2022-10-13T14:12:37;10.27;;;7.88;;
20731;SDS011;10527;52.124;5.196;2022-10-13T14:15:03;12.02;;;8.82;;
20731;SDS011;10527;52.124;5.196;2022-10-13T14:17:31;10.85;;;8.70;;
20731;SDS011;10527;52.124;5.196;2022-10-13T14:19:58;12.65;;;8.10;;
20731;SDS011;10527;52.124;5.196;2022-10-13T14:22:24;25.73;;;19.98;;
20731;SDS011;10527;52.124;5.196;2022-10-13T14:24:52;15.60;;;11.70;;
20731;SDS011;10527;52.124;5.196;2022-10-13T14:27:19;15.93;;;11.43;;
20731;SDS011;10527;52.124;5.196;2022-10-13T14:29:46;14.85;;;8.95;;
20731;SDS011;10527;52.124;5.196;2022-10-13T14:32:12;12.43;;;9.38;;
20731;SDS011;10527;52.124;5.196;2022-10-13T14:34:39;11.07;;;9.57;;
20731;SDS011;10527;52.124;5.196;2022-10-13T14:37:06;15.20;;;9.68;;
20731;SDS011;10527;52.124;5.196;2022-10-13T14:39:33;13.13;;;9.00;;
20731;SDS011;10527;52.124;5.196;2022-10-13T14:41:59;9.60;;;8.35;;
20731;SDS011;10527;52.124;5.196;2022-10-13T14:44:26;10.93;;;7.90;;
20731;SDS011;10527;52.124;5.196;2022-10-13T14:46:53;13.45;;;8.63;;
20731;SDS011;10527;52.124;5.196;2022-10-13T14:49:20;12.80;;;9.27;;
20731;SDS011;10527;52.124;5.196;2022-10-13T14:51:47;12.18;;;8.65;;
20731;SDS011;10527;52.124;5.196;2022-10-13T14:54:13;10.68;;;8.43;;
20731;SDS011;10527;52.124;5.196;2022-10-13T14:56:40;11.70;;;8.25;;
20731;SDS011;10527;52.124;5.196;2022-10-13T14:59:10;10.90;;;9.07;;
20731;SDS011;10527;52.124;5.196;2022-10-13T15:01:37;13.27;;;8.70;;
20731;SDS011;10527;52.124;5.196;2022-10-13T15:04:09;11.57;;;8.77;;
20731;SDS011;10527;52.124;5.196;2022-10-13T15:06:36;12.90;;;9.48;;
20731;SDS011;10527;52.124;5.196;2022-10-13T15:09:07;10.70;;;9.02;;
20731;SDS011;10527;52.124;5.196;2022-10-13T15:11:35;13.35;;;8.52;;
20731;SDS011;10527;52.124;5.196;2022-10-13T15:14:02;13.55;;;8.45;;
20731;SDS011;10527;52.124;5.196;2022-10-13T15:16:30;10.88;;;7.75;;
20731;SDS011;10527;52.124;5.196;2022-10-13T15:19:01;13.38;;;8.98;;
20731;SDS011;10527;52.124;5.196;2022-10-13T15:21:29;12.15;;;9.00;;
20731;SDS011;10527;52.124;5.196;2022-10-13T15:23:56;13.82;;;8.18;;
20731;SDS011;10527;52.124;5.196;2022-10-13T15:26:23;12.55;;;8.60;;
20731;SDS011;10527;52.124;5.196;2022-10-13T15:28:50;12.70;;;8.57;;
20731;SDS011;10527;52.124;5.196;2022-10-13T15:31:19;13.85;;;8.73;;
20731;SDS011;10527;52.124;5.196;2022-10-13T15:33:48;14.27;;;9.35;;
20731;SDS011;10527;52.124;5.196;2022-10-13T15:36:18;12.77;;;8.65;;
20731;SDS011;10527;52.124;5.196;2022-10-13T15:38:47;12.63;;;8.43;;
20731;SDS011;10527;52.124;5.196;2022-10-13T15:41:20;11.40;;;8.88;;
20731;SDS011;10527;52.124;5.196;2022-10-13T15:43:50;12.05;;;8.98;;
20731;SDS011;10527;52.124;5.196;2022-10-13T15:46:17;11.05;;;8.27;;
20731;SDS011;10527;52.124;5.196;2022-10-13T15:48:55;11.63;;;8.60;;
20731;SDS011;10527;52.124;5.196;2022-10-13T15:51:31;12.07;;;8.77;;
20731;SDS011;10527;52.124;5.196;2022-10-13T15:54:01;10.05;;;7.82;;
20731;SDS011;10527;52.124;5.196;2022-10-13T15:56:37;8.35;;;7.43;;
20731;SDS011;10527;52.124;5.196;2022-10-13T15:59:03;9.38;;;8.05;;
20731;SDS011;10527;52.124;5.196;2022-10-13T16:01:30;13.65;;;8.35;;
20731;SDS011;10527;52.124;5.196;2022-10-13T16:03:58;10.23;;;7.85;;
20731;SDS011;10527;52.124;5.196;2022-10-13T16:06:24;13.18;;;10.18;;
20731;SDS011;10527;52.124;5.196;2022-10-13T16:08:52;11.80;;;9.38;;
20731;SDS011;10527;52.124;5.196;2022-10-13T16:11:19;10.52;;;7.72;;
20731;SDS011;10527;52.124;5.196;2022-10-13T16:13:49;13.57;;;9.60;;
20731;SDS011;10527;52.124;5.196;2022-10-13T16:16:17;13.68;;;10.13;;
20731;SDS011;10527;52.124;5.196;2022-10-13T16:18:45;10.65;;;8.95;;
20731;SDS011;10527;52.124;5.196;2022-10-13T16:21:16;20.08;;;14.20;;
20731;SDS011;10527;52.124;5.196;2022-10-13T16:23:47;33.92;;;23.67;;
20731;SDS011;10527;52.124;5.196;2022-10-13T16:26:17;20.98;;;15.45;;
20731;SDS011;10527;52.124;5.196;2022-10-13T16:28:44;13.00;;;10.32;;
20731;SDS011;10527;52.124;5.196;2022-10-13T16:31:13;9.43;;;8.07;;
20731;SDS011;10527;52.124;5.196;2022-10-13T16:33:42;11.18;;;7.88;;
20731;SDS011;10527;52.124;5.196;2022-10-13T16:36:11;11.00;;;8.05;;
20731;SDS011;10527;52.124;5.196;2022-10-13T16:38:41;10.85;;;8.18;;
20731;SDS011;10527;52.124;5.196;2022-10-13T16:41:13;9.88;;;7.85;;
20731;SDS011;10527;52.124;5.196;2022-10-13T16:43:43;8.43;;;7.40;;
20731;SDS011;10527;52.124;5.196;2022-10-13T16:46:12;9.30;;;7.20;;
20731;SDS011;10527;52.124;5.196;2022-10-13T16:48:41;9.68;;;7.78;;
20731;SDS011;10527;52.124;5.196;2022-10-13T16:51:11;9.82;;;8.77;;